TNCMTFFR

Guest
Details From TNCM - St Maarten - Princess Juliana Intl
To TFFR - Pointe a Pitre Le Raizet
Flight Number -
Tags decoded
Created
Modified
Stats Distance 155 nm / 288 km
Max Altitude 0 ft / 0 m
Waypoints 6
Social Downloads 0
Likes 0
Share VATSIM

Download

Looking for another format? Having issues loading an existing format? Contact us
Advertisement - Login to hide

Notes

Requested: TNCM PJM07 MUNSI PPR35 PPR03 TFFR

Route

TNCM PJM07 MUNSI PPR35 PPR03 TFFR

ID Type Via Altitude Latitude Longitude Leg Dist Tot Dist Heading (true) Name
O TNCM APT - 0 ft / 0 m 18.04089˚ -63.10897˚ - 0 nm - St Maarten - Princess Juliana Intl
PJM07 FIX - 0 ft / 0 m 18.02582˚ -63.24012˚ 7 nm 7 nm 263° / 263° -
MUNSI FIX - 0 ft / 0 m 16.31617˚ -61.81233˚ 131 nm 138 nm 141° / 142° -
PPR35 FIX - 0 ft / 0 m 16.30240˚ -61.75400˚ 3 nm 142 nm 104° / 104° -
PPR03 FIX - 0 ft / 0 m 16.27490˚ -61.59100˚ 9 nm 151 nm 100° / 100° -
O TFFR APT - 0 ft / 0 m 16.26531˚ -61.53181˚ 3 nm 155 nm 100° / 100° Pointe a Pitre Le Raizet

Altitude Profile

Advertisement - Login to hide

TNCM

Details ICAO TNCM (SXM)
Name St Maarten - Princess Juliana Intl
Region Caribbean Netherlands, Aruba, Curaçao, Sint Maarten
Timezone Unknown (UTC+0.0)
Stats Elevation 12 ft / 4 m (AMSL)
Location 18.040889° -63.108974°
Runways 1
Magnetic Variation 14.337° W

METAR

TNCM 210800Z 08010KT 050V130 9999 FEW018 26/21 Q1015 A3000

Decode

TAF

TAF TNCM 210520Z 2106/2206 08010KT P6SM VCSH SCT018 FM211300 09015KT P6SM VCSH SCT020

Decode

Departure Runways

ID Width Length Bearing (true) Bearing (mag) Surface Threshold Offset Overrun Length
10 148 ft / 45 m 7,464 ft / 2,275 m 81.43° 95.77° Asphalt 0 ft / 0 m 151 ft / 46 m
28 148 ft / 45 m 7,464 ft / 2,275 m 261.44° 275.78° Asphalt 397 ft / 121 m 0 ft / 0 m

TFFR

Details ICAO TFFR (PTP)
Name Pointe a Pitre Le Raizet
Region France (Guadeloupe, Martinique, Saint Barthélemy, Saint Martin)
Timezone America/Guadeloupe (UTC-4.0)
Stats Elevation 35 ft / 11 m (AMSL)
Location 16.265306° -61.531808°
Runways 1
Magnetic Variation 14.868° W

METAR

TFFR 210800Z AUTO 11003KT 9999 FEW021 24/22 Q1014

Decode

TAF

Not found

Destination Runways

ID Width Length Bearing (true) Bearing (mag) Surface Threshold Offset Overrun Length
11 148 ft / 45 m 11,513 ft / 3,509 m 100.94° 115.81° Asphalt 0 ft / 0 m 0 ft / 0 m
29 148 ft / 45 m 11,513 ft / 3,509 m 280.95° 295.82° Asphalt 0 ft / 0 m 0 ft / 0 m

Approach Navaids

Runway Type Ident Frequency Range Bearing (true) Bearing (mag) Slope Elevation
11 Localiser PP 110.30 MHz 18 nm / 33 km 100.95° 115.82° - 36 ft / 11 m (AMSL)
11 Glidescope PP 110.30 MHz 10 nm / 19 km 100.94° 115.81° 3.20° 36 ft / 11 m (AMSL)

Popular Alternatives